sensor_id;sensor_type;location;lat;lon;timestamp;P1;durP1;ratioP1;P2;durP2;ratioP2
51020;SDS011;38907;45.562;8.856;2023-01-15T00:03:09;41.35;;;26.63;;
51020;SDS011;38907;45.562;8.856;2023-01-15T00:08:11;42.83;;;25.48;;
51020;SDS011;38907;45.562;8.856;2023-01-15T00:13:14;43.85;;;26.85;;
51020;SDS011;38907;45.562;8.856;2023-01-15T00:18:16;46.75;;;28.33;;
51020;SDS011;38907;45.562;8.856;2023-01-15T00:23:18;41.47;;;26.67;;
51020;SDS011;38907;45.562;8.856;2023-01-15T00:28:35;45.35;;;26.60;;
51020;SDS011;38907;45.562;8.856;2023-01-15T00:33:36;46.92;;;28.20;;
51020;SDS011;38907;45.562;8.856;2023-01-15T00:38:38;49.20;;;28.48;;
51020;SDS011;38907;45.562;8.856;2023-01-15T00:43:41;44.97;;;27.38;;
51020;SDS011;38907;45.562;8.856;2023-01-15T00:48:43;46.35;;;27.15;;
51020;SDS011;38907;45.562;8.856;2023-01-15T00:53:45;47.95;;;29.65;;
51020;SDS011;38907;45.562;8.856;2023-01-15T00:58:48;44.55;;;26.98;;
51020;SDS011;38907;45.562;8.856;2023-01-15T01:03:51;46.20;;;28.70;;
51020;SDS011;38907;45.562;8.856;2023-01-15T01:08:53;46.75;;;29.77;;
51020;SDS011;38907;45.562;8.856;2023-01-15T01:13:57;53.20;;;30.63;;
51020;SDS011;38907;45.562;8.856;2023-01-15T01:19:03;54.13;;;31.63;;
51020;SDS011;38907;45.562;8.856;2023-01-15T01:24:06;55.28;;;32.20;;
51020;SDS011;38907;45.562;8.856;2023-01-15T01:29:10;45.22;;;28.02;;
51020;SDS011;38907;45.562;8.856;2023-01-15T01:34:12;46.13;;;29.15;;
51020;SDS011;38907;45.562;8.856;2023-01-15T01:39:15;43.25;;;27.08;;
51020;SDS011;38907;45.562;8.856;2023-01-15T01:50:01;46.75;;;27.42;;
51020;SDS011;38907;45.562;8.856;2023-01-15T01:55:07;53.03;;;28.75;;
51020;SDS011;38907;45.562;8.856;2023-01-15T02:00:12;46.75;;;29.25;;
51020;SDS011;38907;45.562;8.856;2023-01-15T02:05:15;57.90;;;33.72;;
51020;SDS011;38907;45.562;8.856;2023-01-15T02:10:23;52.20;;;32.78;;
51020;SDS011;38907;45.562;8.856;2023-01-15T02:15:28;59.13;;;33.58;;
51020;SDS011;38907;45.562;8.856;2023-01-15T02:20:36;50.08;;;32.05;;
51020;SDS011;38907;45.562;8.856;2023-01-15T02:25:45;50.03;;;32.53;;
51020;SDS011;38907;45.562;8.856;2023-01-15T02:30:57;60.45;;;35.05;;
51020;SDS011;38907;45.562;8.856;2023-01-15T02:36:03;57.92;;;36.72;;
51020;SDS011;38907;45.562;8.856;2023-01-15T02:41:09;65.05;;;38.47;;
51020;SDS011;38907;45.562;8.856;2023-01-15T02:46:16;67.18;;;39.63;;
51020;SDS011;38907;45.562;8.856;2023-01-15T02:51:22;68.68;;;41.42;;
51020;SDS011;38907;45.562;8.856;2023-01-15T02:56:27;72.90;;;43.60;;
51020;SDS011;38907;45.562;8.856;2023-01-15T03:01:37;74.47;;;45.35;;
51020;SDS011;38907;45.562;8.856;2023-01-15T03:06:44;70.18;;;41.88;;
51020;SDS011;38907;45.562;8.856;2023-01-15T03:11:51;67.18;;;39.33;;
51020;SDS011;38907;45.562;8.856;2023-01-15T03:17:08;62.40;;;38.70;;
51020;SDS011;38907;45.562;8.856;2023-01-15T03:22:18;56.88;;;35.67;;
51020;SDS011;38907;45.562;8.856;2023-01-15T03:27:25;59.00;;;34.60;;
51020;SDS011;38907;45.562;8.856;2023-01-15T03:32:30;54.60;;;35.20;;
51020;SDS011;38907;45.562;8.856;2023-01-15T03:37:32;57.35;;;34.38;;
51020;SDS011;38907;45.562;8.856;2023-01-15T03:42:39;56.47;;;34.15;;
51020;SDS011;38907;45.562;8.856;2023-01-15T03:47:51;51.50;;;33.42;;
51020;SDS011;38907;45.562;8.856;2023-01-15T03:53:03;51.70;;;32.38;;
51020;SDS011;38907;45.562;8.856;2023-01-15T03:58:08;44.05;;;30.33;;
51020;SDS011;38907;45.562;8.856;2023-01-15T04:03:15;48.55;;;30.30;;
51020;SDS011;38907;45.562;8.856;2023-01-15T04:08:19;56.42;;;33.63;;
51020;SDS011;38907;45.562;8.856;2023-01-15T04:13:21;54.88;;;33.92;;
51020;SDS011;38907;45.562;8.856;2023-01-15T04:18:25;53.95;;;32.22;;
51020;SDS011;38907;45.562;8.856;2023-01-15T04:23:27;60.75;;;37.15;;
51020;SDS011;38907;45.562;8.856;2023-01-15T04:28:29;59.13;;;32.83;;
51020;SDS011;38907;45.562;8.856;2023-01-15T04:33:32;49.13;;;31.25;;
51020;SDS011;38907;45.562;8.856;2023-01-15T04:38:35;49.80;;;29.52;;
51020;SDS011;38907;45.562;8.856;2023-01-15T04:43:37;47.60;;;29.77;;
51020;SDS011;38907;45.562;8.856;2023-01-15T04:48:57;46.35;;;29.50;;
51020;SDS011;38907;45.562;8.856;2023-01-15T04:54:00;54.58;;;34.15;;
51020;SDS011;38907;45.562;8.856;2023-01-15T04:59:03;51.58;;;31.85;;
51020;SDS011;38907;45.562;8.856;2023-01-15T05:04:06;52.78;;;31.73;;
51020;SDS011;38907;45.562;8.856;2023-01-15T05:09:08;65.15;;;37.97;;
51020;SDS011;38907;45.562;8.856;2023-01-15T05:14:10;58.15;;;34.45;;
51020;SDS011;38907;45.562;8.856;2023-01-15T05:19:14;53.72;;;32.40;;
51020;SDS011;38907;45.562;8.856;2023-01-15T05:24:16;49.50;;;31.05;;
51020;SDS011;38907;45.562;8.856;2023-01-15T05:29:18;47.72;;;28.13;;
51020;SDS011;38907;45.562;8.856;2023-01-15T05:34:21;45.25;;;26.00;;
51020;SDS011;38907;45.562;8.856;2023-01-15T05:39:23;38.35;;;25.52;;
51020;SDS011;38907;45.562;8.856;2023-01-15T05:44:26;37.15;;;24.83;;
51020;SDS011;38907;45.562;8.856;2023-01-15T05:49:30;38.60;;;24.63;;
51020;SDS011;38907;45.562;8.856;2023-01-15T05:54:33;37.70;;;24.13;;
51020;SDS011;38907;45.562;8.856;2023-01-15T05:59:35;41.17;;;24.67;;
51020;SDS011;38907;45.562;8.856;2023-01-15T06:04:38;42.13;;;25.05;;
51020;SDS011;38907;45.562;8.856;2023-01-15T06:09:40;41.47;;;25.65;;
51020;SDS011;38907;45.562;8.856;2023-01-15T06:14:42;40.05;;;25.73;;
51020;SDS011;38907;45.562;8.856;2023-01-15T06:19:46;39.70;;;23.98;;
51020;SDS011;38907;45.562;8.856;2023-01-15T06:24:48;41.20;;;25.63;;
51020;SDS011;38907;45.562;8.856;2023-01-15T06:29:50;39.67;;;26.40;;
51020;SDS011;38907;45.562;8.856;2023-01-15T06:34:54;46.35;;;28.75;;
51020;SDS011;38907;45.562;8.856;2023-01-15T06:39:56;47.28;;;30.35;;
51020;SDS011;38907;45.562;8.856;2023-01-15T06:44:57;49.63;;;32.22;;
51020;SDS011;38907;45.562;8.856;2023-01-15T06:50:18;45.97;;;31.10;;
51020;SDS011;38907;45.562;8.856;2023-01-15T06:55:20;53.60;;;33.03;;
51020;SDS011;38907;45.562;8.856;2023-01-15T07:00:23;52.67;;;33.53;;
51020;SDS011;38907;45.562;8.856;2023-01-15T07:05:26;51.35;;;33.47;;
51020;SDS011;38907;45.562;8.856;2023-01-15T07:10:28;52.25;;;32.88;;
51020;SDS011;38907;45.562;8.856;2023-01-15T07:15:30;54.55;;;33.60;;
51020;SDS011;38907;45.562;8.856;2023-01-15T07:20:33;51.63;;;33.25;;
51020;SDS011;38907;45.562;8.856;2023-01-15T07:30:37;55.75;;;34.85;;
51020;SDS011;38907;45.562;8.856;2023-01-15T07:35:40;52.28;;;33.45;;
51020;SDS011;38907;45.562;8.856;2023-01-15T07:40:42;54.25;;;33.50;;
51020;SDS011;38907;45.562;8.856;2023-01-15T07:46:08;65.03;;;40.83;;
51020;SDS011;38907;45.562;8.856;2023-01-15T07:51:29;63.83;;;39.10;;
51020;SDS011;38907;45.562;8.856;2023-01-15T07:56:32;52.63;;;30.30;;
51020;SDS011;38907;45.562;8.856;2023-01-15T08:01:34;52.85;;;31.83;;
51020;SDS011;38907;45.562;8.856;2023-01-15T08:06:37;52.00;;;30.67;;
51020;SDS011;38907;45.562;8.856;2023-01-15T08:11:39;54.72;;;30.77;;
51020;SDS011;38907;45.562;8.856;2023-01-15T08:16:59;50.35;;;31.05;;
51020;SDS011;38907;45.562;8.856;2023-01-15T08:22:02;60.97;;;34.60;;
51020;SDS011;38907;45.562;8.856;2023-01-15T08:27:04;52.58;;;31.40;;
51020;SDS011;38907;45.562;8.856;2023-01-15T08:32:07;50.35;;;32.40;;
51020;SDS011;38907;45.562;8.856;2023-01-15T08:37:10;60.67;;;35.78;;
51020;SDS011;38907;45.562;8.856;2023-01-15T08:42:12;57.53;;;34.95;;
51020;SDS011;38907;45.562;8.856;2023-01-15T08:47:14;59.22;;;36.30;;
51020;SDS011;38907;45.562;8.856;2023-01-15T08:52:19;60.50;;;37.38;;
51020;SDS011;38907;45.562;8.856;2023-01-15T08:57:21;65.47;;;36.67;;
51020;SDS011;38907;45.562;8.856;2023-01-15T09:02:22;71.93;;;39.75;;
51020;SDS011;38907;45.562;8.856;2023-01-15T09:07:26;65.65;;;39.40;;
51020;SDS011;38907;45.562;8.856;2023-01-15T09:12:28;69.32;;;42.72;;
51020;SDS011;38907;45.562;8.856;2023-01-15T09:17:30;65.28;;;39.60;;
51020;SDS011;38907;45.562;8.856;2023-01-15T09:22:34;65.20;;;39.38;;
51020;SDS011;38907;45.562;8.856;2023-01-15T09:27:36;66.35;;;39.60;;
51020;SDS011;38907;45.562;8.856;2023-01-15T09:32:38;63.58;;;40.22;;
51020;SDS011;38907;45.562;8.856;2023-01-15T09:37:41;63.00;;;38.97;;
51020;SDS011;38907;45.562;8.856;2023-01-15T09:42:44;56.85;;;38.13;;
51020;SDS011;38907;45.562;8.856;2023-01-15T09:47:58;64.18;;;40.50;;
51020;SDS011;38907;45.562;8.856;2023-01-15T09:53:12;64.50;;;41.15;;
51020;SDS011;38907;45.562;8.856;2023-01-15T09:58:26;78.63;;;45.08;;
51020;SDS011;38907;45.562;8.856;2023-01-15T10:03:34;125.22;;;66.03;;
51020;SDS011;38907;45.562;8.856;2023-01-15T10:08:45;85.18;;;51.05;;
51020;SDS011;38907;45.562;8.856;2023-01-15T10:13:48;76.88;;;45.70;;
51020;SDS011;38907;45.562;8.856;2023-01-15T10:18:56;79.60;;;48.10;;
51020;SDS011;38907;45.562;8.856;2023-01-15T10:24:04;88.10;;;51.70;;
51020;SDS011;38907;45.562;8.856;2023-01-15T10:29:11;77.22;;;48.15;;
51020;SDS011;38907;45.562;8.856;2023-01-15T10:34:29;91.45;;;51.97;;
51020;SDS011;38907;45.562;8.856;2023-01-15T10:39:56;103.50;;;57.58;;
51020;SDS011;38907;45.562;8.856;2023-01-15T10:45:32;85.43;;;51.40;;
51020;SDS011;38907;45.562;8.856;2023-01-15T10:50:38;89.55;;;53.17;;
51020;SDS011;38907;45.562;8.856;2023-01-15T10:55:44;99.45;;;55.50;;
51020;SDS011;38907;45.562;8.856;2023-01-15T11:00:51;92.47;;;51.85;;
51020;SDS011;38907;45.562;8.856;2023-01-15T11:05:58;92.68;;;53.28;;
51020;SDS011;38907;45.562;8.856;2023-01-15T11:11:03;89.78;;;53.65;;
51020;SDS011;38907;45.562;8.856;2023-01-15T11:16:19;91.82;;;53.28;;
51020;SDS011;38907;45.562;8.856;2023-01-15T11:21:39;88.38;;;51.47;;
51020;SDS011;38907;45.562;8.856;2023-01-15T11:26:46;98.50;;;52.10;;
51020;SDS011;38907;45.562;8.856;2023-01-15T11:31:51;90.32;;;49.10;;
51020;SDS011;38907;45.562;8.856;2023-01-15T11:37:00;87.78;;;50.45;;
51020;SDS011;38907;45.562;8.856;2023-01-15T11:42:05;90.15;;;51.00;;
51020;SDS011;38907;45.562;8.856;2023-01-15T11:47:33;86.18;;;51.13;;
51020;SDS011;38907;45.562;8.856;2023-01-15T11:52:53;86.88;;;51.75;;
51020;SDS011;38907;45.562;8.856;2023-01-15T11:57:58;87.82;;;52.47;;
51020;SDS011;38907;45.562;8.856;2023-01-15T12:03:03;94.63;;;53.28;;
51020;SDS011;38907;45.562;8.856;2023-01-15T12:08:16;91.68;;;51.97;;
51020;SDS011;38907;45.562;8.856;2023-01-15T12:13:28;79.38;;;45.28;;
51020;SDS011;38907;45.562;8.856;2023-01-15T12:18:45;75.30;;;42.15;;
51020;SDS011;38907;45.562;8.856;2023-01-15T12:23:59;77.63;;;44.05;;
51020;SDS011;38907;45.562;8.856;2023-01-15T12:29:15;69.50;;;39.20;;
51020;SDS011;38907;45.562;8.856;2023-01-15T12:34:23;76.55;;;40.35;;
51020;SDS011;38907;45.562;8.856;2023-01-15T12:39:31;71.60;;;40.38;;
51020;SDS011;38907;45.562;8.856;2023-01-15T12:44:39;82.00;;;45.47;;
51020;SDS011;38907;45.562;8.856;2023-01-15T12:50:05;92.50;;;45.75;;
51020;SDS011;38907;45.562;8.856;2023-01-15T12:55:21;83.28;;;45.35;;
51020;SDS011;38907;45.562;8.856;2023-01-15T13:00:31;79.78;;;40.65;;
51020;SDS011;38907;45.562;8.856;2023-01-15T13:05:38;70.70;;;39.08;;
51020;SDS011;38907;45.562;8.856;2023-01-15T13:10:48;68.80;;;36.65;;
51020;SDS011;38907;45.562;8.856;2023-01-15T13:15:57;69.88;;;40.47;;
51020;SDS011;38907;45.562;8.856;2023-01-15T13:21:05;75.55;;;39.55;;
51020;SDS011;38907;45.562;8.856;2023-01-15T13:26:15;64.72;;;37.33;;
51020;SDS011;38907;45.562;8.856;2023-01-15T13:31:34;67.70;;;37.83;;
51020;SDS011;38907;45.562;8.856;2023-01-15T13:36:51;60.05;;;34.47;;
51020;SDS011;38907;45.562;8.856;2023-01-15T13:41:56;61.63;;;36.95;;
51020;SDS011;38907;45.562;8.856;2023-01-15T13:47:18;59.42;;;34.97;;
51020;SDS011;38907;45.562;8.856;2023-01-15T13:52:25;73.15;;;41.13;;
51020;SDS011;38907;45.562;8.856;2023-01-15T13:57:33;74.70;;;38.35;;
51020;SDS011;38907;45.562;8.856;2023-01-15T14:02:38;78.60;;;36.85;;
51020;SDS011;38907;45.562;8.856;2023-01-15T14:07:41;71.47;;;40.67;;
51020;SDS011;38907;45.562;8.856;2023-01-15T14:12:44;75.05;;;42.95;;
51020;SDS011;38907;45.562;8.856;2023-01-15T14:17:59;90.30;;;47.03;;
51020;SDS011;38907;45.562;8.856;2023-01-15T14:23:15;93.45;;;50.15;;
51020;SDS011;38907;45.562;8.856;2023-01-15T14:28:42;89.45;;;49.65;;
51020;SDS011;38907;45.562;8.856;2023-01-15T14:39:28;90.13;;;49.28;;
51020;SDS011;38907;45.562;8.856;2023-01-15T14:44:33;98.88;;;52.20;;
51020;SDS011;38907;45.562;8.856;2023-01-15T14:49:44;95.23;;;52.50;;
51020;SDS011;38907;45.562;8.856;2023-01-15T14:54:49;92.63;;;47.97;;
51020;SDS011;38907;45.562;8.856;2023-01-15T14:59:53;91.47;;;46.72;;
51020;SDS011;38907;45.562;8.856;2023-01-15T15:05:01;94.70;;;48.05;;
51020;SDS011;38907;45.562;8.856;2023-01-15T15:10:10;94.32;;;48.97;;
51020;SDS011;38907;45.562;8.856;2023-01-15T15:15:19;89.53;;;48.47;;
51020;SDS011;38907;45.562;8.856;2023-01-15T15:20:36;86.82;;;46.95;;
51020;SDS011;38907;45.562;8.856;2023-01-15T15:25:47;86.60;;;46.00;;
51020;SDS011;38907;45.562;8.856;2023-01-15T15:30:56;88.60;;;44.13;;
51020;SDS011;38907;45.562;8.856;2023-01-15T15:36:02;91.60;;;44.75;;
51020;SDS011;38907;45.562;8.856;2023-01-15T15:41:05;82.47;;;44.25;;
51020;SDS011;38907;45.562;8.856;2023-01-15T15:46:20;88.60;;;45.60;;
51020;SDS011;38907;45.562;8.856;2023-01-15T15:51:47;90.05;;;46.55;;
51020;SDS011;38907;45.562;8.856;2023-01-15T15:56:51;85.63;;;44.35;;
51020;SDS011;38907;45.562;8.856;2023-01-15T16:01:57;91.78;;;45.10;;
51020;SDS011;38907;45.562;8.856;2023-01-15T16:07:11;87.95;;;46.30;;
51020;SDS011;38907;45.562;8.856;2023-01-15T16:12:14;86.07;;;46.80;;
51020;SDS011;38907;45.562;8.856;2023-01-15T16:17:17;84.20;;;45.20;;
51020;SDS011;38907;45.562;8.856;2023-01-15T16:22:22;78.82;;;43.88;;
51020;SDS011;38907;45.562;8.856;2023-01-15T16:27:25;79.93;;;45.60;;
51020;SDS011;38907;45.562;8.856;2023-01-15T16:32:32;1178.57;;;127.75;;
51020;SDS011;38907;45.562;8.856;2023-01-15T16:37:37;82.47;;;44.05;;
51020;SDS011;38907;45.562;8.856;2023-01-15T16:42:40;86.20;;;47.17;;
51020;SDS011;38907;45.562;8.856;2023-01-15T16:47:43;78.27;;;45.57;;
51020;SDS011;38907;45.562;8.856;2023-01-15T16:53:04;77.05;;;40.33;;
51020;SDS011;38907;45.562;8.856;2023-01-15T16:58:13;79.63;;;42.00;;
51020;SDS011;38907;45.562;8.856;2023-01-15T17:03:19;71.95;;;40.67;;
51020;SDS011;38907;45.562;8.856;2023-01-15T17:08:26;71.70;;;40.40;;
51020;SDS011;38907;45.562;8.856;2023-01-15T17:13:35;69.03;;;39.65;;
51020;SDS011;38907;45.562;8.856;2023-01-15T17:18:39;70.15;;;41.05;;
51020;SDS011;38907;45.562;8.856;2023-01-15T17:23:42;70.00;;;40.70;;
51020;SDS011;38907;45.562;8.856;2023-01-15T17:28:46;69.60;;;38.92;;
51020;SDS011;38907;45.562;8.856;2023-01-15T17:33:49;73.93;;;39.67;;
51020;SDS011;38907;45.562;8.856;2023-01-15T17:38:54;78.70;;;42.20;;
51020;SDS011;38907;45.562;8.856;2023-01-15T17:44:00;75.88;;;41.20;;
51020;SDS011;38907;45.562;8.856;2023-01-15T17:49:03;71.03;;;42.33;;
51020;SDS011;38907;45.562;8.856;2023-01-15T17:54:07;80.00;;;43.42;;
51020;SDS011;38907;45.562;8.856;2023-01-15T17:59:09;78.40;;;44.00;;
51020;SDS011;38907;45.562;8.856;2023-01-15T18:04:31;85.18;;;47.92;;
51020;SDS011;38907;45.562;8.856;2023-01-15T18:09:56;89.97;;;48.17;;
51020;SDS011;38907;45.562;8.856;2023-01-15T18:14:59;85.50;;;46.78;;
51020;SDS011;38907;45.562;8.856;2023-01-15T18:20:05;84.82;;;45.55;;
51020;SDS011;38907;45.562;8.856;2023-01-15T18:25:12;82.25;;;47.42;;
51020;SDS011;38907;45.562;8.856;2023-01-15T18:30:15;84.40;;;45.97;;
51020;SDS011;38907;45.562;8.856;2023-01-15T18:35:18;82.03;;;45.77;;
51020;SDS011;38907;45.562;8.856;2023-01-15T18:40:24;82.75;;;44.88;;
51020;SDS011;38907;45.562;8.856;2023-01-15T18:45:30;86.40;;;48.05;;
51020;SDS011;38907;45.562;8.856;2023-01-15T18:50:50;85.10;;;45.70;;
51020;SDS011;38907;45.562;8.856;2023-01-15T18:56:01;85.97;;;45.28;;
51020;SDS011;38907;45.562;8.856;2023-01-15T19:01:06;92.28;;;48.95;;
51020;SDS011;38907;45.562;8.856;2023-01-15T19:06:09;93.65;;;49.65;;
51020;SDS011;38907;45.562;8.856;2023-01-15T19:11:13;102.20;;;53.17;;
51020;SDS011;38907;45.562;8.856;2023-01-15T19:16:15;91.68;;;50.47;;
51020;SDS011;38907;45.562;8.856;2023-01-15T19:21:34;88.38;;;48.67;;
51020;SDS011;38907;45.562;8.856;2023-01-15T19:26:38;98.45;;;52.40;;
51020;SDS011;38907;45.562;8.856;2023-01-15T19:31:40;99.35;;;53.88;;
51020;SDS011;38907;45.562;8.856;2023-01-15T19:36:42;95.30;;;52.42;;
51020;SDS011;38907;45.562;8.856;2023-01-15T19:41:46;97.07;;;55.88;;
51020;SDS011;38907;45.562;8.856;2023-01-15T19:47:06;108.97;;;58.00;;
51020;SDS011;38907;45.562;8.856;2023-01-15T19:52:29;101.40;;;55.63;;
51020;SDS011;38907;45.562;8.856;2023-01-15T19:57:39;117.82;;;65.28;;
51020;SDS011;38907;45.562;8.856;2023-01-15T20:02:44;110.15;;;59.55;;
51020;SDS011;38907;45.562;8.856;2023-01-15T20:07:46;109.03;;;57.87;;
51020;SDS011;38907;45.562;8.856;2023-01-15T20:12:50;109.18;;;58.55;;
51020;SDS011;38907;45.562;8.856;2023-01-15T20:18:09;96.35;;;56.33;;
51020;SDS011;38907;45.562;8.856;2023-01-15T20:23:12;102.03;;;56.78;;
51020;SDS011;38907;45.562;8.856;2023-01-15T20:28:15;103.53;;;56.65;;
51020;SDS011;38907;45.562;8.856;2023-01-15T20:33:17;108.05;;;57.88;;
51020;SDS011;38907;45.562;8.856;2023-01-15T20:38:21;105.05;;;56.33;;
51020;SDS011;38907;45.562;8.856;2023-01-15T20:43:25;114.93;;;60.13;;
51020;SDS011;38907;45.562;8.856;2023-01-15T20:48:45;118.03;;;60.40;;
51020;SDS011;38907;45.562;8.856;2023-01-15T20:54:05;108.75;;;60.05;;
51020;SDS011;38907;45.562;8.856;2023-01-15T20:59:08;102.30;;;56.05;;
51020;SDS011;38907;45.562;8.856;2023-01-15T21:04:10;107.10;;;58.90;;
51020;SDS011;38907;45.562;8.856;2023-01-15T21:09:12;99.78;;;55.33;;
51020;SDS011;38907;45.562;8.856;2023-01-15T21:14:16;107.13;;;57.10;;
51020;SDS011;38907;45.562;8.856;2023-01-15T21:19:19;108.13;;;59.88;;
51020;SDS011;38907;45.562;8.856;2023-01-15T21:24:21;98.18;;;55.83;;
51020;SDS011;38907;45.562;8.856;2023-01-15T21:29:24;104.90;;;56.15;;
51020;SDS011;38907;45.562;8.856;2023-01-15T21:34:26;90.00;;;52.35;;
51020;SDS011;38907;45.562;8.856;2023-01-15T21:39:29;100.22;;;54.25;;
51020;SDS011;38907;45.562;8.856;2023-01-15T21:44:33;85.00;;;50.03;;
51020;SDS011;38907;45.562;8.856;2023-01-15T21:49:42;91.10;;;53.13;;
51020;SDS011;38907;45.562;8.856;2023-01-15T21:54:44;88.38;;;51.25;;
51020;SDS011;38907;45.562;8.856;2023-01-15T21:59:48;94.47;;;52.60;;
51020;SDS011;38907;45.562;8.856;2023-01-15T22:04:50;88.97;;;51.67;;
51020;SDS011;38907;45.562;8.856;2023-01-15T22:09:52;85.78;;;50.15;;
51020;SDS011;38907;45.562;8.856;2023-01-15T22:14:56;87.97;;;49.97;;
51020;SDS011;38907;45.562;8.856;2023-01-15T22:19:59;99.18;;;55.58;;
51020;SDS011;38907;45.562;8.856;2023-01-15T22:25:01;93.00;;;52.28;;
51020;SDS011;38907;45.562;8.856;2023-01-15T22:30:07;90.25;;;52.45;;
51020;SDS011;38907;45.562;8.856;2023-01-15T22:35:11;102.93;;;55.83;;
51020;SDS011;38907;45.562;8.856;2023-01-15T22:40:14;113.47;;;59.03;;
51020;SDS011;38907;45.562;8.856;2023-01-15T22:45:18;113.00;;;61.13;;
51020;SDS011;38907;45.562;8.856;2023-01-15T22:50:21;105.35;;;60.28;;
51020;SDS011;38907;45.562;8.856;2023-01-15T22:55:23;105.90;;;58.20;;
51020;SDS011;38907;45.562;8.856;2023-01-15T23:00:26;121.28;;;54.38;;
51020;SDS011;38907;45.562;8.856;2023-01-15T23:05:28;102.93;;;57.10;;
51020;SDS011;38907;45.562;8.856;2023-01-15T23:10:31;107.88;;;57.72;;
51020;SDS011;38907;45.562;8.856;2023-01-15T23:15:35;104.38;;;59.22;;
51020;SDS011;38907;45.562;8.856;2023-01-15T23:20:38;108.63;;;61.42;;
51020;SDS011;38907;45.562;8.856;2023-01-15T23:25:40;106.05;;;60.35;;
51020;SDS011;38907;45.562;8.856;2023-01-15T23:30:44;101.18;;;55.58;;
51020;SDS011;38907;45.562;8.856;2023-01-15T23:35:45;101.43;;;56.45;;
51020;SDS011;38907;45.562;8.856;2023-01-15T23:40:47;101.20;;;58.30;;
51020;SDS011;38907;45.562;8.856;2023-01-15T23:45:50;101.57;;;58.33;;
51020;SDS011;38907;45.562;8.856;2023-01-15T23:51:10;111.72;;;59.97;;
51020;SDS011;38907;45.562;8.856;2023-01-15T23:56:12;118.00;;;61.10;;
